createdAt,value
2022-12-20T00:02:55.376Z,12.20
2022-12-20T00:05:58.403Z,12.30
2022-12-20T00:09:03.393Z,12.93
2022-12-20T00:12:06.424Z,12.63
2022-12-20T00:15:09.960Z,12.10
2022-12-20T00:18:12.511Z,12.95
2022-12-20T00:21:15.779Z,13.10
2022-12-20T00:24:25.883Z,12.77
2022-12-20T00:27:29.137Z,13.10
2022-12-20T00:30:31.762Z,11.30
2022-12-20T00:33:34.584Z,10.07
2022-12-20T00:36:37.289Z,9.87
2022-12-20T00:39:41.283Z,9.33
2022-12-20T00:42:43.820Z,8.97
2022-12-20T00:45:46.398Z,9.50
2022-12-20T00:48:49.051Z,11.23
2022-12-20T00:51:51.681Z,9.27
2022-12-20T00:54:55.638Z,10.87
2022-12-20T01:01:00.852Z,9.83
2022-12-20T01:04:04.376Z,9.13
2022-12-20T01:07:06.971Z,9.45
2022-12-20T01:10:12.107Z,9.00
2022-12-20T01:13:14.849Z,9.17
2022-12-20T01:16:19.896Z,8.80
2022-12-20T01:19:22.639Z,9.03
2022-12-20T01:22:25.344Z,8.53
2022-12-20T01:25:29.412Z,9.43
2022-12-20T01:28:33.096Z,10.13
2022-12-20T01:31:36.621Z,10.57
2022-12-20T01:34:39.394Z,10.77
2022-12-20T01:37:42.063Z,10.77
2022-12-20T01:40:46.058Z,11.60
2022-12-20T01:43:52.054Z,10.83
2022-12-20T01:46:55.537Z,9.97
2022-12-20T01:50:00.033Z,11.23
2022-12-20T01:53:04.235Z,10.37
2022-12-20T01:56:08.971Z,10.73
2022-12-20T01:59:12.318Z,11.13
2022-12-20T02:02:15.207Z,11.60
2022-12-20T02:05:20.206Z,10.30
2022-12-20T02:08:22.844Z,9.10
2022-12-20T02:11:47.485Z,10.30
2022-12-20T02:15:06.708Z,10.07
2022-12-20T02:18:18.108Z,10.57
2022-12-20T02:21:29.423Z,10.47
2022-12-20T02:24:49.054Z,9.43
2022-12-20T02:28:00.865Z,9.73
2022-12-20T02:31:08.892Z,10.30
2022-12-20T02:34:12.196Z,9.90
2022-12-20T02:37:14.856Z,9.27
2022-12-20T02:40:19.870Z,9.33
2022-12-20T02:43:37.447Z,9.17
2022-12-20T02:46:41.738Z,9.13
2022-12-20T02:49:45.819Z,8.43
2022-12-20T02:52:48.753Z,8.47
2022-12-20T02:55:55.707Z,8.00
2022-12-20T02:59:04.063Z,9.37
2022-12-20T03:02:08.833Z,9.10
2022-12-20T03:05:11.685Z,8.17
2022-12-20T03:08:14.297Z,8.43
2022-12-20T03:11:16.907Z,8.73
2022-12-20T03:14:19.761Z,9.47
2022-12-20T03:17:26.660Z,9.47
2022-12-20T03:20:29.331Z,10.37
2022-12-20T03:23:32.166Z,9.63
2022-12-20T03:26:34.819Z,9.40
2022-12-20T03:29:37.378Z,9.70
2022-12-20T03:32:41.486Z,8.93
2022-12-20T03:35:44.077Z,9.60
2022-12-20T03:38:47.236Z,8.90
2022-12-20T03:41:49.856Z,9.00
2022-12-20T03:44:52.539Z,8.70
2022-12-20T03:47:56.568Z,9.03
2022-12-20T03:54:01.716Z,8.03
2022-12-20T03:57:04.434Z,9.50
2022-12-20T04:00:08.477Z,8.80
2022-12-20T04:03:12.638Z,7.60
2022-12-20T04:06:15.878Z,8.00
2022-12-20T04:09:18.822Z,8.40
2022-12-20T04:12:22.038Z,8.38
2022-12-20T04:15:24.748Z,8.45
2022-12-20T04:21:33.782Z,8.40
2022-12-20T04:24:36.391Z,9.53
2022-12-20T04:27:38.961Z,7.70
2022-12-20T04:30:41.623Z,7.97
2022-12-20T04:33:46.266Z,13.10
2022-12-20T04:36:48.870Z,8.10
2022-12-20T04:39:51.448Z,9.07
2022-12-20T04:42:54.019Z,8.60
2022-12-20T04:45:57.339Z,8.13
2022-12-20T04:49:02.786Z,8.23
2022-12-20T04:52:19.828Z,8.43
2022-12-20T04:55:23.122Z,9.30
2022-12-20T04:58:25.762Z,8.45
2022-12-20T05:01:28.557Z,7.43
2022-12-20T05:04:37.339Z,7.18
2022-12-20T05:07:40.521Z,7.40
2022-12-20T05:10:43.465Z,6.83
2022-12-20T05:13:46.154Z,7.93
2022-12-20T05:16:48.910Z,8.07
2022-12-20T05:19:52.872Z,8.97
2022-12-20T05:23:13.114Z,9.63
2022-12-20T05:26:18.648Z,8.07
2022-12-20T05:29:21.310Z,7.60
2022-12-20T05:32:23.900Z,8.20
2022-12-20T05:35:28.046Z,7.13
2022-12-20T05:38:31.402Z,11.00
2022-12-20T05:41:34.332Z,8.20
2022-12-20T05:44:37.082Z,7.28
2022-12-20T05:47:39.602Z,6.97
2022-12-20T05:50:45.192Z,7.63
2022-12-20T05:53:47.829Z,8.53
2022-12-20T05:56:50.384Z,8.87
2022-12-20T05:59:53.098Z,7.87
2022-12-20T06:02:55.951Z,6.90
2022-12-20T06:06:00.124Z,7.90
2022-12-20T06:09:02.939Z,7.10
2022-12-20T06:12:06.448Z,6.87
2022-12-20T06:15:10.832Z,7.55
2022-12-20T06:18:13.732Z,7.50
2022-12-20T06:21:17.957Z,8.63
2022-12-20T06:24:21.403Z,7.30
2022-12-20T06:27:24.130Z,8.27
2022-12-20T06:30:33.414Z,7.77
2022-12-20T06:33:36.631Z,8.40
2022-12-20T06:36:40.923Z,8.27
2022-12-20T06:39:43.619Z,9.33
2022-12-20T06:42:46.267Z,7.33
2022-12-20T06:45:48.849Z,7.83
2022-12-20T06:48:51.511Z,7.33
2022-12-20T06:51:56.280Z,8.90
2022-12-20T06:54:58.884Z,8.47
2022-12-20T06:58:01.473Z,8.03
2022-12-20T07:01:04.220Z,8.30
2022-12-20T07:04:06.888Z,8.63
2022-12-20T07:07:11.059Z,9.27
2022-12-20T07:10:14.005Z,9.63
2022-12-20T07:13:16.871Z,9.90
2022-12-20T07:16:19.530Z,9.60
2022-12-20T07:19:22.783Z,8.80
2022-12-20T07:22:26.741Z,9.98
2022-12-20T07:25:29.712Z,9.80
2022-12-20T07:28:32.718Z,10.45
2022-12-20T07:31:35.616Z,10.65
2022-12-20T07:34:38.620Z,10.18
2022-12-20T07:37:42.743Z,9.60
2022-12-20T07:40:45.395Z,10.27
2022-12-20T07:43:48.332Z,10.23
2022-12-20T07:46:51.155Z,9.85
2022-12-20T07:49:54.153Z,10.55
2022-12-20T07:52:58.878Z,9.20
2022-12-20T07:56:02.443Z,9.60
2022-12-20T07:59:05.330Z,9.05
2022-12-20T08:02:09.094Z,8.40
2022-12-20T08:08:16.700Z,8.53
2022-12-20T08:11:19.918Z,9.20
2022-12-20T08:14:22.816Z,9.27
2022-12-20T08:17:25.545Z,10.85
2022-12-20T08:20:28.248Z,9.33
2022-12-20T08:23:32.186Z,9.00
2022-12-20T08:26:38.994Z,9.27
2022-12-20T08:29:41.731Z,8.73
2022-12-20T08:32:44.416Z,8.83
2022-12-20T08:35:47.362Z,7.57
2022-12-20T08:38:51.278Z,8.23
2022-12-20T08:41:53.917Z,8.77
2022-12-20T08:44:56.732Z,7.40
2022-12-20T08:47:59.393Z,8.15
2022-12-20T08:51:03.656Z,9.10
2022-12-20T08:54:08.460Z,8.13
2022-12-20T08:57:11.178Z,7.93
2022-12-20T09:00:15.080Z,8.63
2022-12-20T09:03:18.073Z,8.03
2022-12-20T09:06:22.426Z,7.53
2022-12-20T09:09:26.456Z,8.03
2022-12-20T09:12:29.113Z,7.63
2022-12-20T09:15:31.860Z,7.97
2022-12-20T09:18:35.390Z,10.05
2022-12-20T09:21:38.007Z,9.95
2022-12-20T09:24:42.012Z,9.40
2022-12-20T09:27:45.089Z,9.43
2022-12-20T09:30:47.777Z,8.88
2022-12-20T09:33:51.192Z,7.77
2022-12-20T09:36:53.799Z,8.60
2022-12-20T09:39:58.172Z,8.27
2022-12-20T09:43:01.137Z,8.67
2022-12-20T09:46:05.187Z,9.07
2022-12-20T09:49:08.066Z,8.77
2022-12-20T09:52:42.087Z,8.88
2022-12-20T09:55:54.052Z,9.40
2022-12-20T09:59:00.982Z,8.13
2022-12-20T10:02:19.524Z,7.83
2022-12-20T10:05:34.266Z,8.53
2022-12-20T10:08:46.344Z,8.60
2022-12-20T10:11:59.271Z,9.23
2022-12-20T10:15:09.587Z,9.73
2022-12-20T10:18:23.104Z,8.43
2022-12-20T10:21:31.525Z,8.95
2022-12-20T10:24:35.762Z,9.90
2022-12-20T10:27:41.854Z,8.93
2022-12-20T10:30:45.297Z,8.60
2022-12-20T10:33:48.047Z,8.88
2022-12-20T10:36:52.530Z,8.73
2022-12-20T10:39:55.217Z,9.47
2022-12-20T10:42:59.614Z,9.70
2022-12-20T10:46:05.047Z,7.87
2022-12-20T10:49:32.784Z,8.63
2022-12-20T10:52:35.447Z,7.80
2022-12-20T10:55:40.103Z,8.60
2022-12-20T10:58:44.384Z,8.77
2022-12-20T11:01:48.623Z,9.20
2022-12-20T11:05:00.438Z,8.43
2022-12-20T11:11:33.334Z,8.50
2022-12-20T11:14:39.895Z,8.20
2022-12-20T11:17:46.531Z,8.53
2022-12-20T11:20:55.531Z,8.87
2022-12-20T11:24:04.401Z,9.13
2022-12-20T11:27:19.629Z,8.87
2022-12-20T11:30:27.167Z,8.67
2022-12-20T11:33:38.192Z,9.30
2022-12-20T11:37:03.512Z,9.77
2022-12-20T11:40:20.303Z,10.00
2022-12-20T11:44:08.133Z,9.77
2022-12-20T11:47:26.907Z,9.07
2022-12-20T11:50:45.496Z,10.00
2022-12-20T11:53:53.663Z,9.97
2022-12-20T11:57:01.633Z,10.03
2022-12-20T12:00:06.506Z,10.90
2022-12-20T12:03:15.215Z,12.17
2022-12-20T12:06:21.822Z,11.17
2022-12-20T12:09:28.204Z,10.00
2022-12-20T12:12:34.297Z,10.03
2022-12-20T12:15:41.963Z,9.07
2022-12-20T12:18:46.298Z,10.03
2022-12-20T12:21:51.413Z,9.30
2022-12-20T12:24:56.272Z,9.13
2022-12-20T12:27:59.338Z,8.33
2022-12-20T12:31:06.956Z,9.75
2022-12-20T12:34:20.367Z,8.67
2022-12-20T12:37:49.953Z,9.25
2022-12-20T12:41:34.020Z,8.30
2022-12-20T12:44:45.646Z,8.48
2022-12-20T12:47:51.210Z,8.93
2022-12-20T12:50:57.588Z,7.43
2022-12-20T12:54:13.617Z,8.00
2022-12-20T12:57:17.653Z,6.70
2022-12-20T13:00:50.735Z,7.77
2022-12-20T13:04:24.319Z,7.50
2022-12-20T13:07:31.040Z,6.95
2022-12-20T13:11:01.076Z,6.67
2022-12-20T13:14:36.077Z,7.77
2022-12-20T13:17:51.482Z,8.27
2022-12-20T13:21:19.899Z,8.43
2022-12-20T13:24:53.166Z,8.77
2022-12-20T13:28:34.347Z,7.23
2022-12-20T13:31:38.410Z,7.30
2022-12-20T13:34:55.496Z,8.60
2022-12-20T13:38:01.920Z,9.03
2022-12-20T13:41:13.015Z,8.33
2022-12-20T13:44:42.633Z,8.23
2022-12-20T13:47:49.605Z,7.27
2022-12-20T13:50:53.153Z,7.60
2022-12-20T13:53:57.269Z,8.10
2022-12-20T13:57:00.054Z,7.23
2022-12-20T14:00:07.789Z,8.00
2022-12-20T14:03:20.895Z,7.63
2022-12-20T14:06:27.143Z,7.67
2022-12-20T14:09:33.959Z,7.97
2022-12-20T14:12:37.233Z,7.53
2022-12-20T14:15:41.085Z,7.17
2022-12-20T14:18:49.595Z,7.23
2022-12-20T14:21:52.379Z,6.40
2022-12-20T14:24:55.287Z,7.05
2022-12-20T14:27:58.774Z,7.72
2022-12-20T14:31:03.492Z,8.10
2022-12-20T14:34:13.793Z,8.63
2022-12-20T14:37:28.960Z,7.00
2022-12-20T14:40:31.642Z,6.57
2022-12-20T14:43:37.645Z,7.33
2022-12-20T14:46:46.916Z,7.00
2022-12-20T14:49:56.055Z,7.13
2022-12-20T14:52:59.011Z,7.40
2022-12-20T14:56:01.689Z,7.85
2022-12-20T14:59:15.791Z,7.80
2022-12-20T15:02:41.111Z,7.13
2022-12-20T15:05:48.218Z,7.17
2022-12-20T15:08:50.936Z,7.00
2022-12-20T15:11:54.151Z,7.10
2022-12-20T15:15:03.691Z,6.32
2022-12-20T15:18:21.697Z,5.60
2022-12-20T15:21:29.652Z,5.93
2022-12-20T15:24:33.388Z,6.47
2022-12-20T15:30:38.583Z,6.77
2022-12-20T15:33:42.955Z,9.47
2022-12-20T15:36:47.103Z,7.73
2022-12-20T15:39:49.793Z,8.10
2022-12-20T15:42:52.863Z,7.23
2022-12-20T15:45:55.743Z,8.32
2022-12-20T15:48:58.750Z,7.85
2022-12-20T15:52:02.649Z,6.88
2022-12-20T15:55:07.026Z,7.07
2022-12-20T15:58:09.956Z,6.80
2022-12-20T16:01:15.469Z,7.10
2022-12-20T16:04:19.765Z,7.03
2022-12-20T16:07:24.173Z,6.67
2022-12-20T16:10:26.748Z,7.60
2022-12-20T16:13:29.360Z,6.80
2022-12-20T16:16:34.178Z,7.82
2022-12-20T16:19:36.788Z,7.70
2022-12-20T16:22:40.645Z,6.70
2022-12-20T16:25:43.216Z,7.40
2022-12-20T16:28:47.833Z,6.72
2022-12-20T16:31:51.487Z,7.80
2022-12-20T16:37:59.328Z,7.07
2022-12-20T16:41:12.464Z,8.10
2022-12-20T16:44:16.529Z,8.00
2022-12-20T16:47:19.184Z,8.63
2022-12-20T16:50:23.435Z,8.30
2022-12-20T16:53:27.318Z,8.77
2022-12-20T16:56:30.565Z,8.20
2022-12-20T16:59:33.255Z,9.40
2022-12-20T17:02:36.176Z,8.20
2022-12-20T17:05:39.604Z,7.82
2022-12-20T17:12:06.497Z,8.43
2022-12-20T17:15:16.901Z,7.63
2022-12-20T17:18:19.429Z,8.17
2022-12-20T17:21:26.327Z,7.77
2022-12-20T17:24:30.493Z,7.60
2022-12-20T17:27:33.291Z,7.80
2022-12-20T17:30:35.932Z,7.88
2022-12-20T17:33:38.636Z,7.93
2022-12-20T17:36:41.205Z,7.80
2022-12-20T17:39:45.220Z,7.10
2022-12-20T17:42:47.981Z,7.70
2022-12-20T17:45:50.689Z,6.88
2022-12-20T17:48:53.522Z,6.60
2022-12-20T17:51:57.088Z,6.03
2022-12-20T17:55:00.996Z,7.18
2022-12-20T17:58:03.683Z,6.43
2022-12-20T18:01:06.740Z,7.07
2022-12-20T18:04:11.649Z,8.32
2022-12-20T18:07:14.458Z,7.87
2022-12-20T18:10:18.532Z,6.25
2022-12-20T18:13:21.360Z,6.90
2022-12-20T18:16:26.221Z,7.63
2022-12-20T18:19:29.243Z,7.73
2022-12-20T18:22:33.908Z,6.28
2022-12-20T18:25:37.894Z,6.83
2022-12-20T18:28:42.658Z,11.77
2022-12-20T18:31:45.388Z,7.77
2022-12-20T18:34:48.809Z,7.60
2022-12-20T18:37:51.492Z,6.82
2022-12-20T18:40:55.494Z,6.80
2022-12-20T18:43:59.871Z,8.00
2022-12-20T18:47:03.846Z,8.67
2022-12-20T18:50:08.082Z,7.73
2022-12-20T18:53:10.922Z,7.13
2022-12-20T18:56:16.923Z,6.63
2022-12-20T18:59:21.172Z,6.60
2022-12-20T19:02:23.857Z,6.57
2022-12-20T19:05:26.621Z,6.55
2022-12-20T19:08:30.140Z,7.53
2022-12-20T19:11:34.517Z,6.75
2022-12-20T19:14:37.750Z,6.90
2022-12-20T19:17:40.363Z,6.50
2022-12-20T19:20:43.421Z,7.20
2022-12-20T19:23:47.715Z,7.38
2022-12-20T19:26:51.729Z,6.57
2022-12-20T19:29:54.505Z,7.13
2022-12-20T19:32:57.132Z,7.88
2022-12-20T19:35:59.868Z,8.00
2022-12-20T19:39:03.531Z,6.55
2022-12-20T19:42:23.547Z,7.22
2022-12-20T19:45:27.224Z,7.60
2022-12-20T19:48:30.286Z,6.82
2022-12-20T19:51:33.272Z,7.93
2022-12-20T19:54:36.138Z,6.90
2022-12-20T19:57:40.426Z,7.30
2022-12-20T20:00:43.739Z,7.00
2022-12-20T20:03:46.618Z,6.55
2022-12-20T20:06:49.185Z,7.40
2022-12-20T20:09:51.788Z,7.07
2022-12-20T20:12:55.714Z,6.23
2022-12-20T20:15:59.864Z,7.23
2022-12-20T20:19:02.640Z,8.07
2022-12-20T20:22:06.568Z,8.27
2022-12-20T20:25:09.924Z,8.47
2022-12-20T20:28:14.212Z,7.68
2022-12-20T20:31:17.958Z,8.13
2022-12-20T20:34:21.720Z,8.40
2022-12-20T20:40:35.437Z,8.80
2022-12-20T20:46:43.679Z,8.30
2022-12-20T20:52:56.043Z,9.77
2022-12-20T20:55:58.827Z,9.73
2022-12-20T20:59:08.120Z,9.73
2022-12-20T21:02:14.732Z,9.70
2022-12-20T21:08:40.981Z,8.63
2022-12-20T21:11:43.838Z,9.47
2022-12-20T21:15:20.869Z,10.13
2022-12-20T21:18:10.512Z,8.27
2022-12-20T21:21:13.944Z,8.93
2022-12-20T21:24:16.869Z,9.52
2022-12-20T21:27:19.985Z,9.52
2022-12-20T21:30:24.127Z,9.30
2022-12-20T21:33:26.696Z,8.77
2022-12-20T21:36:29.405Z,10.53
2022-12-20T21:39:31.971Z,9.63
2022-12-20T21:42:34.505Z,9.83
2022-12-20T21:45:38.350Z,10.93
2022-12-20T21:48:41.488Z,10.77
2022-12-20T21:51:43.994Z,9.25
2022-12-20T21:54:46.545Z,10.97
2022-12-20T21:57:49.143Z,10.43
2022-12-20T22:00:54.987Z,9.87
2022-12-20T22:04:00.109Z,9.80
2022-12-20T22:07:02.683Z,10.27
2022-12-20T22:10:05.764Z,10.00
2022-12-20T22:13:08.376Z,9.88
2022-12-20T22:16:15.360Z,9.83
2022-12-20T22:19:18.103Z,10.70
2022-12-20T22:22:21.063Z,10.20
2022-12-20T22:25:24.222Z,8.57
2022-12-20T22:28:26.804Z,10.10
2022-12-20T22:31:31.408Z,9.27
2022-12-20T22:34:34.412Z,9.13
2022-12-20T22:37:36.988Z,7.25
2022-12-20T22:40:39.473Z,8.00
2022-12-20T22:43:43.141Z,8.33
2022-12-20T22:49:49.464Z,8.20
2022-12-20T22:52:52.258Z,9.60
2022-12-20T22:55:55.208Z,9.52
2022-12-20T22:58:57.823Z,8.95
2022-12-20T23:02:04.738Z,8.37
2022-12-20T23:05:08.461Z,9.17
2022-12-20T23:11:35.720Z,8.80
2022-12-20T23:15:01.753Z,8.90
2022-12-20T23:18:07.799Z,8.07
2022-12-20T23:21:28.539Z,9.37
2022-12-20T23:24:31.201Z,8.70
2022-12-20T23:27:33.987Z,7.97
2022-12-20T23:30:36.558Z,8.45
2022-12-20T23:33:40.674Z,9.03
2022-12-20T23:36:43.272Z,8.80
2022-12-20T23:39:45.829Z,8.43
2022-12-20T23:42:48.639Z,8.10
2022-12-20T23:45:51.258Z,8.57
2022-12-20T23:48:55.168Z,7.47
2022-12-20T23:51:57.820Z,8.00
2022-12-20T23:55:00.504Z,8.23
2022-12-20T23:58:03.054Z,7.73
